Strona główna
METAR-TAF:

METAR-TAF

Lotnisko :

Port lotniczy Kair

Kair, Egipt

Szerokość geograficzna: 30-08N, Długość geograficzna: 031-24E, wysokość: 64 m

Aktualna obserwacja pogody

Raport powstał 15 minut temu, godzina 05:00 UTC
Wiatr 10 kt od północ
Temperatura 20°C
Wilgotność 68%
Ciśnienie 1018 hPa
Widzialność 10 km lub więcej
Rozproszone chmury na wysokości 2500 ft

METAR: HECA 280500Z 35010KT 9999 SCT025 20/14 Q1018 NOSIG

czas: 07:15 (05:15 UTC)

Prognoza

Raport powstał 6 godziny i 15 minut temu, godzina 23:00 UTC
Prognoza ważna od 28 godzina 00 UTC do 29 godzina 06 UTC
Wiatr 9 kt od północ
Widzialność 10 km lub więcej
Rozproszone chmury na wysokości 2500 ft

TAF: HECA 272300Z 2800/2906 36009KT 9999 SCT025

Obserwacja i prognoza pogody dla ponad 4000 lotnisk (raport METAR i TAF).

Dostępne stacje oznaczono żółtymi i czerwonymi punktami na mapie.

Najedź kursorem aby zobaczyć nazwę stacji.

Kliknij aby zobaczyć obserwacje i prognozy pogody.

Aby zmienić mapę: kliknij na zielony przycisk z czarnym krzyżykiem, aby powiększyć; na zielony przycisk z myślnikiem, aby pomniejszyć; na zielone strzałki, aby przejść do map sąsiednich.


METAR-TAF: